JM-0006 weather

Port Esquivel Airstrip
Saint Catherine, Jamaica

Public forecast

Using degrees Celsius for public forecast. Weather courtesy of forecast.io.

METAR (pilot weather report)

Closest report is Norman Manley International Airport, 20.1 nm (37.2 km) E. Retrieved 2019/03/22 13:00 UTC (48 minutes ago):

MKJP 221300Z 13004KT 9999 FEW020 27/20 Q1016

TAF (pilot weather forecast)

Closest forecast is Norman Manley International Airport, 20.1 nm (37.2 km) E. Retrieved 2019/03/22 12:27 UTC (1 hour ago):

TAF MKJP 221115Z 2212/2312 VRB02KT 9999 FEW022 BECMG 2213/2215 16006KT BECMG 2223/2301 VRB02KT FEW020